Abrams, Wisconsin
Current Conditions -  °F | °C
As of 8:35 PM on Saturday 25 Oct 2014 (Local Time) from KOCQ Reporting Station
Clear Clear  
Wind Chill: 51°   Ceiling: Unl
Heat Index: 51°   Visibility: 10mi
Dew Point: 27°   Wind: 5mph
Humidity: 39%   Direction: 290°WNW
Pressure: 29.88"   Gusts: NA
Location:  44.78°N, 88.06°W
Report Text: KOCQ 260135Z AUTO 29004KT 10SM CLR 10/M03 A2988 RMK AO1 T01041030
Loading
Personal Weather Stations






























Interactive Weather Map
Tropical Storm Tracking
New forecast layout! Learn more

10-Day Weather Forecast

Advertisements
Track Severe Weather on mobile